Time;durP1;ratioP1;P1;durP2;ratioP2;P2;SDS_P1;SDS_P2;PMS_P1;PMS_P2;Temp;Humidity;BMP_temperature;BMP_pressure;BME280_temperature;BME280_humidity;BME280_pressure;Samples;Min_cycle;Max_cycle;Signal;HPM_P1;HPM_P2
2023/01/11 00:01:22;;;;;;;13.23;9.98;;;9.30;99.90;;;;;;5052762;28;20041;-66
2023/01/11 00:03:47;;;;;;;13.00;9.60;;;9.40;99.90;;;;;;5053432;28;20079;-66
2023/01/11 00:06:13;;;;;;;11.73;8.50;;;9.40;99.90;;;;;;5053111;28;20129;-66
2023/01/11 00:08:39;;;;;;;14.63;9.23;;;9.50;99.90;;;;;;5051252;28;20044;-66
2023/01/11 00:11:12;;;;;;;11.73;8.65;;;9.50;99.90;;;;;;5053542;28;20429;-66
2023/01/11 00:13:37;;;;;;;9.82;7.30;;;9.50;99.90;;;;;;5051243;28;20048;-66
2023/01/11 00:16:07;;;;;;;11.18;8.07;;;9.50;99.90;;;;;;5053621;28;20417;-66
2023/01/11 00:18:34;;;;;;;11.10;7.82;;;9.50;99.90;;;;;;5051880;28;20048;-66
2023/01/11 00:21:04;;;;;;;11.77;7.90;;;9.60;99.90;;;;;;5052544;28;20521;-66
2023/01/11 00:23:31;;;;;;;11.90;7.63;;;9.60;99.90;;;;;;5052041;28;20052;-66
2023/01/11 00:25:56;;;;;;;9.70;7.28;;;9.60;99.90;;;;;;5051478;28;20131;-66
2023/01/11 00:28:22;;;;;;;10.98;8.15;;;9.60;99.90;;;;;;5050735;28;20183;-66
2023/01/11 00:30:48;;;;;;;10.30;7.72;;;9.70;99.90;;;;;;5051662;28;20489;-66
2023/01/11 00:33:14;;;;;;;11.30;8.13;;;9.70;99.90;;;;;;5051840;28;20037;-65
2023/01/11 00:35:40;;;;;;;11.07;7.65;;;9.70;99.90;;;;;;5052065;28;20501;-66
2023/01/11 00:38:06;;;;;;;10.20;7.68;;;9.70;99.90;;;;;;5052964;28;20510;-66
2023/01/11 00:40:32;;;;;;;10.50;7.88;;;9.70;99.90;;;;;;5051485;28;20040;-66
2023/01/11 00:48:26;;;;;;;9.20;6.75;;;9.70;99.90;;;;;;5052730;28;20040;-65
2023/01/11 00:50:54;;;;;;;10.98;7.72;;;9.80;99.90;;;;;;5051869;28;20044;-66
2023/01/11 00:53:20;;;;;;;9.05;6.10;;;9.70;99.90;;;;;;5051428;28;20134;-65
2023/01/11 00:55:45;;;;;;;9.38;7.32;;;9.80;99.90;;;;;;5052145;28;20076;-66
2023/01/11 00:58:11;;;;;;;9.57;6.65;;;9.80;99.90;;;;;;5050608;28;20048;-66
2023/01/11 01:00:37;;;;;;;9.07;6.28;;;9.80;99.90;;;;;;5052731;28;20048;-66
2023/01/11 01:03:03;;;;;;;8.70;6.22;;;9.80;99.90;;;;;;5050603;28;20049;-66
2023/01/11 01:05:28;;;;;;;8.45;5.93;;;9.80;99.90;;;;;;5051107;28;20051;-66
2023/01/11 01:07:54;;;;;;;8.00;5.40;;;9.80;99.90;;;;;;5050819;28;20398;-67
2023/01/11 01:10:20;;;;;;;8.65;5.57;;;9.80;99.90;;;;;;5051222;28;20126;-67
2023/01/11 01:15:32;;;;;;;8.82;6.15;;;9.90;99.90;;;;;;5051297;28;20375;-66
2023/01/11 01:17:57;;;;;;;6.78;4.53;;;9.90;99.90;;;;;;5051743;28;20091;-66
2023/01/11 01:20:24;;;;;;;8.10;5.03;;;10.00;99.90;;;;;;5050575;28;20044;-66
2023/01/11 01:22:50;;;;;;;6.75;4.40;;;10.00;99.90;;;;;;5050831;28;20045;-66
2023/01/11 01:25:16;;;;;;;8.07;5.60;;;10.00;99.90;;;;;;5050845;28;20131;-66
2023/01/11 01:27:42;;;;;;;6.65;4.70;;;10.10;99.90;;;;;;5050672;28;20095;-65
2023/01/11 01:30:08;;;;;;;7.80;5.20;;;10.20;99.90;;;;;;5052183;28;20044;-65
2023/01/11 01:32:34;;;;;;;7.85;5.05;;;10.10;99.90;;;;;;5051165;28;20044;-66
2023/01/11 01:34:59;;;;;;;7.82;4.68;;;10.20;99.90;;;;;;5050973;28;20067;-64
2023/01/11 01:37:25;;;;;;;6.85;4.20;;;10.20;99.90;;;;;;5050520;28;20457;-64
2023/01/11 01:39:51;;;;;;;7.10;4.53;;;10.20;99.90;;;;;;5049881;28;20037;-64
2023/01/11 01:42:19;;;;;;;6.72;4.35;;;10.20;99.90;;;;;;5051629;28;20486;-63
2023/01/11 01:45:22;;;;;;;12.73;6.03;;;10.20;99.90;;;;;;5033934;28;20037;-63
2023/01/11 01:47:54;;;;;;;7.20;4.60;;;10.30;99.90;;;;;;5050407;28;20048;-63
2023/01/11 01:50:31;;;;;;;7.28;5.00;;;10.30;99.90;;;;;;5051841;28;20037;-63
2023/01/11 01:53:09;;;;;;;6.53;4.47;;;10.40;99.90;;;;;;5049526;28;20125;-63
2023/01/11 01:55:38;;;;;;;7.05;4.55;;;10.40;99.90;;;;;;5033888;28;20041;-63
2023/01/11 01:58:08;;;;;;;7.85;5.00;;;10.40;99.90;;;;;;5035642;28;20049;-64
2023/01/11 02:00:36;;;;;;;8.75;5.55;;;10.40;99.90;;;;;;5037136;28;20120;-65
2023/01/11 02:03:02;;;;;;;8.07;5.63;;;10.40;99.90;;;;;;5054610;28;20056;-65
2023/01/11 02:05:28;;;;;;;7.32;4.50;;;10.40;99.90;;;;;;5054305;28;20049;-64
2023/01/11 02:07:57;;;;;;;7.00;4.00;;;10.40;99.90;;;;;;5053582;28;20460;-64
2023/01/11 02:10:26;;;;;;;6.78;3.90;;;10.40;99.90;;;;;;5054304;28;20100;-65
2023/01/11 02:12:59;;;;;;;6.82;4.00;;;10.40;99.90;;;;;;5055491;28;20450;-65
2023/01/11 02:15:25;;;;;;;7.22;4.13;;;10.40;99.90;;;;;;5036877;28;20041;-65
2023/01/11 02:17:51;;;;;;;5.95;3.50;;;10.40;99.90;;;;;;5055444;28;20045;-65
2023/01/11 02:20:38;;;;;;;6.47;3.78;;;10.40;99.90;;;;;;5053406;28;20059;-66
2023/01/11 02:23:31;;;;;;;7.18;4.43;;;10.50;99.90;;;;;;5054307;28;20049;-66
2023/01/11 02:26:18;;;;;;;6.97;4.53;;;10.40;99.90;;;;;;5054965;28;20080;-66
2023/01/11 02:28:52;;;;;;;6.90;4.03;;;10.40;99.90;;;;;;5054620;28;20037;-65
2023/01/11 02:31:27;;;;;;;8.05;4.50;;;10.30;99.90;;;;;;5037365;28;20045;-65
2023/01/11 02:34:20;;;;;;;7.47;4.32;;;10.30;99.90;;;;;;5055153;28;20535;-65
2023/01/11 02:37:12;;;;;;;8.13;4.85;;;10.30;99.90;;;;;;5053857;28;20397;-66
2023/01/11 02:40:13;;;;;;;7.43;5.07;;;10.30;99.90;;;;;;5055095;28;20120;-66
2023/01/11 02:46:41;;;;;;;10.73;5.70;;;10.30;99.90;;;;;;5016291;28;20128;-66
2023/01/11 02:49:25;;;;;;;8.45;5.68;;;10.30;99.90;;;;;;5054028;28;20032;-65
2023/01/11 02:52:01;;;;;;;9.95;5.50;;;10.30;99.90;;;;;;5053690;28;20049;-64
2023/01/11 02:54:28;;;;;;;8.18;5.63;;;10.40;99.90;;;;;;5053438;28;20033;-65
2023/01/11 02:56:57;;;;;;;9.48;6.30;;;10.40;99.90;;;;;;5036134;28;20129;-64
2023/01/11 02:59:33;;;;;;;11.35;5.95;;;10.40;99.90;;;;;;5053332;28;20056;-64
2023/01/11 03:01:59;;;;;;;17.50;7.22;;;10.40;99.90;;;;;;5053493;28;20047;-65
2023/01/11 03:04:35;;;;;;;14.15;6.82;;;10.50;99.90;;;;;;5052758;28;20044;-64
2023/01/11 03:07:18;;;;;;;15.40;7.22;;;10.50;99.90;;;;;;5053457;28;20051;-63
2023/01/11 03:10:12;;;;;;;15.52;6.70;;;10.50;99.90;;;;;;5052730;28;20497;-64
2023/01/11 03:13:07;;;;;;;10.75;5.70;;;10.50;99.90;;;;;;5034392;28;20048;-65
2023/01/11 03:15:55;;;;;;;16.77;7.28;;;10.50;99.90;;;;;;5054350;28;20049;-65
2023/01/11 03:18:45;;;;;;;10.98;5.22;;;10.50;99.90;;;;;;5035659;28;20077;-65
2023/01/11 03:21:38;;;;;;;14.88;5.40;;;10.50;99.90;;;;;;5052809;28;20141;-66
2023/01/11 03:24:19;;;;;;;14.88;5.40;;;10.50;99.90;;;;;;5052098;28;20068;-66
2023/01/11 03:26:53;;;;;;;11.77;4.50;;;10.60;99.90;;;;;;5052985;28;20088;-66
2023/01/11 03:29:28;;;;;;;14.07;5.10;;;10.60;99.90;;;;;;5053033;28;20112;-66
2023/01/11 03:32:15;;;;;;;13.52;4.32;;;10.60;99.90;;;;;;5052303;28;20060;-66
2023/01/11 03:35:11;;;;;;;14.95;4.90;;;10.60;99.90;;;;;;5035989;28;20041;-65
2023/01/11 03:38:06;;;;;;;20.10;4.63;;;10.60;99.90;;;;;;5052289;28;20051;-65
2023/01/11 03:40:52;;;;;;;15.48;4.65;;;10.60;99.90;;;;;;5050670;28;20049;-65
2023/01/11 03:43:19;;;;;;;;;;;10.70;99.90;;;;;;5054407;28;20129;-65
2023/01/11 03:45:59;;;;;;;22.45;6.07;;;10.70;99.90;;;;;;5052986;28;20280;-65
2023/01/11 03:48:37;;;;;;;25.48;6.90;;;10.60;99.90;;;;;;5054096;28;20068;-65
2023/01/11 03:51:06;;;;;;;24.08;5.53;;;10.70;99.90;;;;;;5053911;28;20162;-65
2023/01/11 03:53:35;;;;;;;20.33;5.68;;;10.60;99.90;;;;;;5052861;28;20044;-65
2023/01/11 03:56:04;;;;;;;20.55;5.40;;;10.60;99.90;;;;;;5053861;28;20076;-65
2023/01/11 03:58:30;;;;;;;17.23;5.32;;;10.70;99.90;;;;;;5052427;28;20048;-65
2023/01/11 04:00:58;;;;;;;19.60;5.07;;;10.60;99.90;;;;;;5051476;28;20045;-65
2023/01/11 04:03:24;;;;;;;16.67;4.07;;;10.60;99.90;;;;;;5053348;28;20055;-64
2023/01/11 04:05:53;;;;;;;19.55;4.50;;;10.50;99.90;;;;;;5051291;28;20120;-64
2023/01/11 04:08:18;;;;;;;14.93;3.70;;;10.40;99.90;;;;;;5053547;28;20044;-64
2023/01/11 04:10:45;;;;;;;13.23;3.33;;;10.40;99.90;;;;;;5052046;28;20048;-64
2023/01/11 04:13:10;;;;;;;10.65;2.80;;;10.40;99.90;;;;;;5052500;28;20029;-64
2023/01/11 04:15:36;;;;;;;15.20;3.08;;;10.30;99.90;;;;;;5052068;28;20523;-64
2023/01/11 04:18:05;;;;;;;17.33;3.88;;;10.30;99.90;;;;;;5052295;28;20037;-65
2023/01/11 04:20:33;;;;;;;13.60;3.00;;;10.30;99.90;;;;;;5052450;28;20456;-65
2023/01/11 04:22:59;;;;;;;16.13;3.15;;;10.20;99.90;;;;;;5052126;28;20045;-65
2023/01/11 04:25:25;;;;;;;21.20;3.78;;;10.20;99.90;;;;;;5052722;28;20049;-65
2023/01/11 04:27:50;;;;;;;18.58;4.38;;;10.20;99.90;;;;;;5050909;28;20378;-66
2023/01/11 04:30:16;;;;;;;15.95;4.55;;;10.20;99.90;;;;;;5051906;28;20116;-65
2023/01/11 04:32:42;;;;;;;20.92;6.13;;;10.20;99.90;;;;;;5051469;28;20120;-65
2023/01/11 04:35:08;;;;;;;19.90;5.70;;;10.20;99.90;;;;;;5051959;28;20052;-65
2023/01/11 04:37:34;;;;;;;25.60;5.93;;;10.20;99.90;;;;;;5052950;28;20041;-65
2023/01/11 04:40:00;;;;;;;23.92;6.32;;;10.20;99.90;;;;;;5051749;28;20045;-65
2023/01/11 04:42:26;;;;;;;24.77;6.18;;;10.20;99.90;;;;;;5050588;28;20131;-65
2023/01/11 04:44:52;;;;;;;25.77;6.95;;;10.20;99.90;;;;;;5052578;28;20052;-65
2023/01/11 04:47:19;;;;;;;23.80;6.60;;;10.20;99.90;;;;;;5052477;28;20044;-65
2023/01/11 04:49:45;;;;;;;15.23;4.72;;;10.20;99.90;;;;;;5050451;28;20045;-65
2023/01/11 04:52:13;;;;;;;18.85;4.22;;;10.20;99.90;;;;;;5051233;28;20041;-65
2023/01/11 04:54:39;;;;;;;15.40;4.53;;;10.20;99.90;;;;;;5052426;28;20045;-65
2023/01/11 04:57:06;;;;;;;14.48;3.50;;;10.10;99.90;;;;;;5050783;28;20037;-65
2023/01/11 04:59:32;;;;;;;16.92;4.15;;;10.10;99.90;;;;;;5051594;28;20490;-65
2023/01/11 05:01:58;;;;;;;15.05;4.20;;;10.10;99.90;;;;;;5050433;28;20052;-65
2023/01/11 05:04:24;;;;;;;12.35;3.40;;;10.10;99.90;;;;;;5050981;28;20053;-65
2023/01/11 05:06:49;;;;;;;12.77;3.72;;;10.10;99.90;;;;;;5051012;28;20049;-65
2023/01/11 05:09:16;;;;;;;15.82;3.58;;;10.00;99.90;;;;;;5050324;28;20079;-65
2023/01/11 05:11:43;;;;;;;14.32;3.75;;;10.00;99.90;;;;;;5051255;28;20055;-65
2023/01/11 05:14:09;;;;;;;22.40;5.57;;;10.00;99.90;;;;;;5034240;28;20124;-65
2023/01/11 05:16:36;;;;;;;18.55;4.10;;;10.00;99.90;;;;;;5049914;28;20037;-64
2023/01/11 05:19:03;;;;;;;17.77;4.68;;;10.00;99.90;;;;;;5051318;28;20059;-64
2023/01/11 05:21:34;;;;;;;22.30;4.93;;;10.00;99.90;;;;;;5050887;28;20128;-64
2023/01/11 05:24:03;;;;;;;20.42;5.22;;;9.90;99.90;;;;;;5050242;28;20061;-65
2023/01/11 05:26:31;;;;;;;15.35;5.18;;;10.00;99.90;;;;;;5050691;28;20606;-64
2023/01/11 05:29:00;;;;;;;23.00;4.90;;;10.00;99.90;;;;;;5034198;28;20045;-64
2023/01/11 05:31:26;;;;;;;18.58;4.82;;;9.90;99.90;;;;;;5050948;28;20086;-65
2023/01/11 05:33:54;;;;;;;19.55;5.03;;;9.80;99.90;;;;;;5050246;28;20073;-64
2023/01/11 05:36:22;;;;;;;19.30;4.05;;;9.80;99.90;;;;;;5052190;28;20097;-65
2023/01/11 05:38:49;;;;;;;20.30;5.30;;;9.70;99.90;;;;;;5050995;28;20513;-65
2023/01/11 05:41:16;;;;;;;17.42;4.85;;;9.70;99.90;;;;;;5050617;28;20075;-65
2023/01/11 05:46:32;;;;;;;18.83;4.55;;;9.60;99.90;;;;;;5049773;28;20107;-64
2023/01/11 05:48:58;;;;;;;13.88;4.15;;;9.60;99.90;;;;;;5050883;28;20052;-65
2023/01/11 05:51:25;;;;;;;18.23;4.30;;;9.50;99.90;;;;;;5049617;28;20041;-64
2023/01/11 05:53:51;;;;;;;8.57;3.30;;;9.40;99.90;;;;;;5034235;28;20044;-64
2023/01/11 05:56:18;;;;;;;16.95;4.03;;;9.40;99.90;;;;;;5050337;28;20045;-64
2023/01/11 05:58:47;;;;;;;15.20;3.58;;;9.40;99.90;;;;;;5050749;28;20083;-64
2023/01/11 06:01:13;;;;;;;17.02;3.33;;;9.40;99.90;;;;;;5050176;28;20049;-64
2023/01/11 06:03:39;;;;;;;16.23;3.72;;;9.30;99.90;;;;;;5050365;28;20490;-64
2023/01/11 06:06:05;;;;;;;15.32;4.30;;;9.30;99.90;;;;;;5049683;28;20048;-65
2023/01/11 06:08:31;;;;;;;16.95;4.80;;;9.30;99.90;;;;;;5051885;28;20037;-65
2023/01/11 06:10:57;;;;;;;21.42;4.57;;;9.30;99.90;;;;;;5051547;28;20033;-64
2023/01/11 06:13:27;;;;;;;19.55;4.63;;;9.40;99.90;;;;;;5032958;28;20041;-65
2023/01/11 06:16:03;;;;;;;17.42;4.53;;;9.30;99.90;;;;;;5050130;28;20049;-65
2023/01/11 06:18:35;;;;;;;23.10;4.68;;;9.40;99.90;;;;;;5050488;28;20048;-65
2023/01/11 06:21:00;;;;;;;15.63;4.90;;;9.30;99.90;;;;;;5049684;28;20037;-65
2023/01/11 06:23:27;;;;;;;22.95;5.13;;;9.40;99.90;;;;;;5050027;28;20057;-65
2023/01/11 06:25:54;;;;;;;22.33;5.30;;;9.30;99.90;;;;;;5050028;28;20060;-65
2023/01/11 06:28:20;;;;;;;17.30;4.55;;;9.40;99.90;;;;;;5050443;28;20083;-65
2023/01/11 06:30:57;;;;;;;21.65;5.40;;;9.40;99.90;;;;;;5051537;28;20045;-66
2023/01/11 06:33:24;;;;;;;18.20;4.35;;;9.40;99.90;;;;;;5049671;28;20041;-65
2023/01/11 06:35:51;;;;;;;18.08;3.70;;;9.40;99.90;;;;;;5050129;28;20045;-65
2023/01/11 06:38:18;;;;;;;18.65;4.97;;;9.40;99.90;;;;;;5051429;28;20068;-65
2023/01/11 06:40:56;;;;;;;15.10;4.53;;;9.40;99.90;;;;;;5049300;28;20049;-65
2023/01/11 06:43:24;;;;;;;13.52;5.35;;;9.50;99.90;;;;;;5051175;28;20040;-65
2023/01/11 06:45:50;;;;;;;16.15;5.65;;;9.50;99.90;;;;;;5052814;28;20037;-64
2023/01/11 06:48:17;;;;;;;17.83;9.88;;;9.60;99.90;;;;;;5054062;28;20028;-66
2023/01/11 06:50:46;;;;;;;41.58;26.05;;;9.60;99.90;;;;;;5053783;28;20037;-66
2023/01/11 06:53:11;;;;;;;28.02;18.50;;;9.60;99.90;;;;;;5053632;28;20048;-66
2023/01/11 06:55:37;;;;;;;24.65;11.10;;;9.60;99.90;;;;;;5054090;28;20074;-66
2023/01/11 06:58:03;;;;;;;10.60;5.30;;;9.60;99.90;;;;;;5053551;28;20049;-66
2023/01/11 07:00:29;;;;;;;13.75;3.33;;;9.60;99.90;;;;;;5053612;28;20098;-66
2023/01/11 07:02:55;;;;;;;13.75;4.78;;;9.60;99.90;;;;;;5053754;28;20124;-65
2023/01/11 07:05:20;;;;;;;15.45;4.95;;;9.50;99.90;;;;;;5053368;28;20406;-66
2023/01/11 07:07:46;;;;;;;20.05;4.40;;;9.50;99.90;;;;;;5054436;28;20033;-66
2023/01/11 07:10:14;;;;;;;15.90;3.47;;;9.40;99.90;;;;;;5052516;28;20037;-66
2023/01/11 07:12:41;;;;;;;14.60;3.15;;;9.30;99.90;;;;;;5053073;28;20041;-66
2023/01/11 07:15:08;;;;;;;14.45;6.60;;;9.30;99.90;;;;;;5053248;28;20114;-66
2023/01/11 07:17:34;;;;;;;14.55;5.47;;;9.20;99.90;;;;;;5053395;28;20048;-67
2023/01/11 07:20:01;;;;;;;16.05;6.28;;;9.20;99.90;;;;;;5054626;28;20037;-66
2023/01/11 07:22:27;;;;;;;20.00;4.70;;;9.20;99.90;;;;;;5052984;28;20048;-66
2023/01/11 07:24:53;;;;;;;27.80;15.02;;;9.10;99.90;;;;;;5051808;28;20067;-66
2023/01/11 07:27:19;;;;;;;18.90;5.43;;;9.10;99.90;;;;;;5054115;28;20116;-66
2023/01/11 07:29:45;;;;;;;16.42;3.85;;;9.10;99.90;;;;;;5052015;28;20032;-66
2023/01/11 07:32:11;;;;;;;11.30;4.30;;;9.10;99.90;;;;;;5052680;28;20060;-66
2023/01/11 07:34:37;;;;;;;18.23;3.80;;;9.00;99.90;;;;;;5052740;28;20076;-66
2023/01/11 07:37:03;;;;;;;11.52;2.85;;;9.00;99.90;;;;;;5035644;28;20099;-66
2023/01/11 07:39:30;;;;;;;11.18;3.50;;;9.00;99.90;;;;;;5054023;28;20494;-66
2023/01/11 07:44:40;;;;;;;11.93;2.90;;;9.00;99.90;;;;;;5053071;28;20055;-66
2023/01/11 07:47:05;;;;;;;10.68;3.80;;;9.00;99.90;;;;;;5052592;28;20037;-66
2023/01/11 07:49:31;;;;;;;12.18;5.15;;;8.90;99.90;;;;;;5052694;28;20098;-66
2023/01/11 07:51:57;;;;;;;10.68;3.05;;;9.00;99.90;;;;;;5052897;28;20115;-66
2023/01/11 07:54:23;;;;;;;10.60;2.83;;;9.00;99.90;;;;;;5053548;28;20080;-66
2023/01/11 07:56:50;;;;;;;9.73;3.22;;;8.90;99.90;;;;;;5053185;28;20045;-66
2023/01/11 07:59:16;;;;;;;11.10;2.78;;;8.90;99.90;;;;;;5051552;28;20120;-66
2023/01/11 08:01:42;;;;;;;16.63;3.45;;;8.90;99.90;;;;;;5053705;28;20398;-66
2023/01/11 08:04:10;;;;;;;12.38;2.85;;;8.90;99.90;;;;;;5053387;28;20071;-66
2023/01/11 08:06:37;;;;;;;11.90;2.55;;;8.90;99.90;;;;;;5051315;28;20041;-66
2023/01/11 08:09:03;;;;;;;10.60;2.20;;;8.90;99.90;;;;;;5052665;28;20049;-66
2023/01/11 08:16:57;;;;;;;12.07;3.35;;;8.80;99.90;;;;;;5052332;28;20080;-66
2023/01/11 08:19:23;;;;;;;14.50;3.00;;;8.70;99.90;;;;;;5051069;28;21074;-66
2023/01/11 08:21:49;;;;;;;11.13;3.42;;;8.70;99.90;;;;;;5052930;28;20076;-65
2023/01/11 08:24:16;;;;;;;10.05;3.03;;;8.60;99.90;;;;;;5052600;28;20057;-65
2023/01/11 08:26:41;;;;;;;10.50;3.03;;;8.70;99.90;;;;;;5050894;28;20493;-65
2023/01/11 08:29:07;;;;;;;17.75;2.88;;;8.70;99.90;;;;;;5051814;28;20080;-66
2023/01/11 08:31:33;;;;;;;13.77;2.80;;;8.60;99.90;;;;;;5052877;28;20036;-65
2023/01/11 08:33:59;;;;;;;12.43;3.13;;;8.60;99.90;;;;;;5052463;28;20037;-65
2023/01/11 08:36:26;;;;;;;12.25;3.13;;;8.60;99.90;;;;;;5051572;28;20037;-65
2023/01/11 08:38:58;;;;;;;11.10;3.80;;;8.50;99.90;;;;;;5051396;28;20055;-65
2023/01/11 08:41:24;;;;;;;8.60;3.10;;;8.50;99.90;;;;;;5050995;28;20053;-65
2023/01/11 08:43:50;;;;;;;11.35;2.70;;;8.50;99.90;;;;;;5051515;28;20505;-65
2023/01/11 08:46:17;;;;;;;9.40;2.90;;;8.50;99.90;;;;;;5052556;28;20387;-65
2023/01/11 08:48:43;;;;;;;8.48;2.47;;;8.40;99.90;;;;;;5050459;28;20501;-65
2023/01/11 08:51:09;;;;;;;15.30;3.47;;;8.40;99.90;;;;;;5051238;28;20490;-65
2023/01/11 08:53:35;;;;;;;11.65;3.25;;;8.40;99.90;;;;;;5051111;28;20053;-65
2023/01/11 08:56:01;;;;;;;11.02;2.92;;;8.40;99.90;;;;;;5050781;28;20563;-65
2023/01/11 08:58:27;;;;;;;10.15;2.92;;;8.40;99.90;;;;;;5051063;28;20044;-65
2023/01/11 09:00:52;;;;;;;12.90;2.97;;;8.40;99.90;;;;;;5051171;28;20132;-65
2023/01/11 09:03:19;;;;;;;11.00;2.88;;;8.40;99.90;;;;;;5051636;28;20049;-65
2023/01/11 09:05:45;;;;;;;9.68;2.55;;;8.40;99.90;;;;;;5050938;28;20045;-65
2023/01/11 09:08:11;;;;;;;9.85;2.88;;;8.40;99.90;;;;;;5049618;28;20136;-65
2023/01/11 09:10:37;;;;;;;11.68;3.55;;;8.40;99.90;;;;;;5051332;28;20044;-65
2023/01/11 09:13:03;;;;;;;10.00;3.40;;;8.30;99.90;;;;;;5049281;28;20524;-65
2023/01/11 09:15:29;;;;;;;12.63;2.67;;;8.40;99.90;;;;;;5033880;28;20044;-66
2023/01/11 09:17:55;;;;;;;10.15;2.80;;;8.40;99.90;;;;;;5050017;28;20481;-66
2023/01/11 09:20:21;;;;;;;13.15;3.28;;;8.40;99.90;;;;;;5048423;28;20049;-66
2023/01/11 09:22:49;;;;;;;12.27;2.88;;;8.40;99.90;;;;;;5049689;28;20485;-66
2023/01/11 09:25:15;;;;;;;11.45;3.03;;;8.40;99.90;;;;;;5044158;28;20520;-65
2023/01/11 09:27:46;;;;;;;11.45;2.85;;;8.40;99.90;;;;;;5046464;28;20095;-65
2023/01/11 09:30:14;;;;;;;11.80;2.90;;;8.40;99.90;;;;;;5048167;28;20084;-66
2023/01/11 09:32:40;;;;;;;12.48;2.70;;;8.40;99.90;;;;;;5041416;28;20051;-65
2023/01/11 09:35:06;;;;;;;11.20;3.50;;;8.40;99.90;;;;;;5029876;28;20104;-66
2023/01/11 09:37:32;;;;;;;11.10;3.00;;;8.40;99.90;;;;;;5044439;28;20417;-66
2023/01/11 09:39:58;;;;;;;13.77;3.40;;;8.40;99.90;;;;;;5040695;28;20029;-65
2023/01/11 09:42:38;;;;;;;19.02;4.13;;;8.50;99.90;;;;;;5028486;28;20050;-65
2023/01/11 09:45:17;;;;;;;14.35;3.75;;;8.50;99.90;;;;;;5047543;28;20409;-65
2023/01/11 09:47:59;;;;;;;14.15;3.38;;;8.50;99.90;;;;;;5047370;28;20632;-65
2023/01/11 09:50:27;;;;;;;11.70;2.70;;;8.50;99.90;;;;;;5047475;28;20045;-65
2023/01/11 09:53:07;;;;;;;11.52;3.53;;;8.60;99.90;;;;;;5047925;28;20074;-65
2023/01/11 09:55:47;;;;;;;10.80;3.15;;;8.60;99.90;;;;;;5048384;28;20375;-65
2023/01/11 09:58:31;;;;;;;12.15;3.00;;;8.60;99.90;;;;;;5047168;28;20093;-65
2023/01/11 10:01:11;;;;;;;11.43;3.13;;;8.70;99.90;;;;;;5031374;28;20552;-66
2023/01/11 10:03:47;;;;;;;13.43;2.95;;;8.70;99.90;;;;;;5018441;28;20036;-65
2023/01/11 10:06:31;;;;;;;10.60;2.63;;;8.80;99.90;;;;;;5043704;28;20156;-65
2023/01/11 10:09:06;;;;;;;11.93;3.20;;;8.80;99.90;;;;;;5023701;28;20441;-65
2023/01/11 10:11:54;;;;;;;8.02;2.70;;;8.90;99.90;;;;;;5043805;28;20432;-65
2023/01/11 10:14:34;;;;;;;16.30;2.65;;;8.90;99.90;;;;;;5049089;28;20493;-66
2023/01/11 10:17:19;;;;;;;16.23;3.00;;;8.90;99.90;;;;;;5047964;28;20041;-66
2023/01/11 10:19:53;;;;;;;9.23;3.38;;;8.90;99.90;;;;;;5049984;28;20099;-66
2023/01/11 10:22:30;;;;;;;10.13;2.83;;;9.00;99.90;;;;;;5052425;28;20056;-66
2023/01/11 10:25:22;;;;;;;11.98;2.80;;;9.00;99.90;;;;;;5051266;28;20088;-65
2023/01/11 10:27:55;;;;;;;10.40;3.38;;;9.10;99.90;;;;;;5049899;28;20056;-66
2023/01/11 10:45:15;;;;;;;13.43;3.00;;;9.30;99.90;;;;;;5049033;28;20138;-66
2023/01/11 10:59:03;;;;;;;11.77;3.63;;;9.40;99.90;;;;;;5048363;28;20044;-66
2023/01/11 11:01:54;;;;;;;11.27;3.70;;;9.50;99.90;;;;;;5036084;28;20041;-65
2023/01/11 11:16:07;;;;;;;14.15;3.75;;;9.60;99.90;;;;;;5052065;28;20075;-67
2023/01/11 11:18:33;;;;;;;16.10;3.35;;;9.70;99.90;;;;;;5047913;28;20238;-68
2023/01/11 11:21:09;;;;;;;19.27;3.53;;;9.70;99.90;;;;;;5053352;28;20059;-67
2023/01/11 11:23:36;;;;;;;16.08;4.07;;;9.70;99.90;;;;;;5051688;28;20359;-68
2023/01/11 11:26:05;;;;;;;12.52;3.25;;;9.70;99.90;;;;;;5036085;28;20056;-67
2023/01/11 11:28:32;;;;;;;10.60;3.35;;;9.80;99.90;;;;;;5053231;28;20116;-67
2023/01/11 11:31:00;;;;;;;18.70;3.80;;;9.80;99.90;;;;;;5050235;28;20116;-68
2023/01/11 11:33:38;;;;;;;19.15;5.15;;;9.80;99.90;;;;;;5052272;28;20045;-68
2023/01/11 11:36:07;;;;;;;13.45;3.58;;;9.80;99.90;;;;;;5035025;28;20080;-68
2023/01/11 11:39:10;;;;;;;12.77;3.00;;;9.80;99.90;;;;;;5053563;28;20029;-66
2023/01/11 11:41:50;;;;;;;11.10;3.13;;;9.80;99.90;;;;;;5026818;28;20052;-67
2023/01/11 11:44:23;;;;;;;15.02;3.65;;;9.80;99.90;;;;;;5051183;28;20052;-64
2023/01/11 11:46:58;;;;;;;14.70;3.85;;;9.80;99.90;;;;;;5052293;28;20848;-65
2023/01/11 11:49:25;;;;;;;17.60;4.10;;;9.80;99.90;;;;;;5053376;28;20124;-64
2023/01/11 11:51:51;;;;;;;19.50;4.47;;;9.80;99.90;;;;;;5053151;28;20076;-64
2023/01/11 11:54:55;;;;;;;14.43;3.72;;;9.80;99.90;;;;;;5053818;28;20033;-64
2023/01/11 11:57:26;;;;;;;22.83;4.60;;;9.70;99.90;;;;;;5040808;28;20111;-65
2023/01/11 12:00:02;;;;;;;15.57;4.25;;;9.70;99.90;;;;;;5052526;28;20055;-64
2023/01/11 12:02:30;;;;;;;17.13;4.65;;;9.80;99.90;;;;;;5053436;28;20597;-64
2023/01/11 12:04:58;;;;;;;19.88;3.70;;;9.70;99.90;;;;;;5051574;28;20041;-65
2023/01/11 12:07:51;;;;;;;14.38;3.15;;;9.70;99.90;;;;;;5052059;28;20056;-64
2023/01/11 12:10:19;;;;;;;14.20;3.92;;;9.70;99.90;;;;;;5052085;28;20126;-65
2023/01/11 12:13:01;;;;;;;18.35;3.83;;;9.70;99.90;;;;;;5051543;28;20045;-64
2023/01/11 12:15:29;;;;;;;12.77;3.95;;;9.70;99.90;;;;;;5052004;28;20076;-64
2023/01/11 12:18:14;;;;;;;13.98;3.63;;;9.70;99.90;;;;;;5035175;28;20098;-64
2023/01/11 12:20:41;;;;;;;16.15;4.20;;;9.70;99.90;;;;;;5052185;28;20041;-64
2023/01/11 12:23:18;;;;;;;11.75;3.88;;;9.60;99.90;;;;;;5051770;28;20044;-65
2023/01/11 12:25:56;;;;;;;14.35;3.83;;;9.70;99.90;;;;;;5051021;28;20049;-64
2023/01/11 12:28:50;;;;;;;14.13;4.72;;;9.70;99.90;;;;;;5051759;28;20037;-64
2023/01/11 12:31:27;;;;;;;21.40;4.25;;;9.70;99.90;;;;;;5033736;28;20049;-64
2023/01/11 12:34:14;;;;;;;12.82;3.35;;;9.70;99.90;;;;;;5050873;28;20086;-64
2023/01/11 12:36:55;;;;;;;14.93;3.97;;;9.60;99.90;;;;;;5052622;28;20044;-64
2023/01/11 12:39:37;;;;;;;13.30;3.80;;;9.60;99.90;;;;;;5050871;28;20049;-64
2023/01/11 12:42:27;;;;;;;11.75;3.40;;;9.60;99.90;;;;;;5052070;28;20486;-64
2023/01/11 12:44:58;;;;;;;17.35;4.47;;;9.60;99.90;;;;;;5051322;28;20044;-64
2023/01/11 12:47:30;;;;;;;18.98;5.05;;;9.60;99.90;;;;;;5050464;28;20064;-64
2023/01/11 12:50:36;;;;;;;17.15;4.45;;;9.70;99.90;;;;;;5052701;28;20118;-64
2023/01/11 12:53:37;;;;;;;18.55;4.25;;;9.60;99.90;;;;;;5035374;28;20044;-64
2023/01/11 12:56:15;;;;;;;19.05;4.50;;;9.60;99.90;;;;;;5014058;28;20045;-64
2023/01/11 12:58:48;;;;;;;25.25;4.43;;;9.60;99.90;;;;;;5046394;28;20064;-65
2023/01/11 13:01:41;;;;;;;12.77;3.75;;;9.80;99.90;;;;;;5050302;28;20048;-64
2023/01/11 13:04:31;;;;;;;14.27;3.72;;;9.80;99.90;;;;;;5052770;28;20119;-64
2023/01/11 13:07:02;;;;;;;22.85;5.18;;;9.80;99.90;;;;;;5051050;28;20048;-64
2023/01/11 13:09:47;;;;;;;15.77;4.45;;;9.80;99.90;;;;;;5050348;28;20090;-64
2023/01/11 13:12:28;;;;;;;16.20;5.07;;;9.70;99.90;;;;;;5052410;28;20041;-64
2023/01/11 13:15:03;;;;;;;20.42;5.03;;;9.70;99.90;;;;;;5050105;28;20079;-64
2023/01/11 13:17:29;;;;;;;;;;;9.70;99.90;;;;;;5051782;28;20055;-65
2023/01/11 13:20:16;;;;;;;21.60;4.57;;;9.70;99.90;;;;;;5050943;28;19917;-65
2023/01/11 13:22:48;;;;;;;22.40;5.88;;;9.70;99.90;;;;;;5049998;28;20049;-65
2023/01/11 13:25:27;;;;;;;24.77;5.47;;;9.70;99.90;;;;;;5050569;28;20061;-64
2023/01/11 13:27:55;;;;;;;20.83;5.28;;;9.70;99.90;;;;;;5052211;28;20052;-65
2023/01/11 13:30:23;;;;;;;11.77;4.68;;;9.70;99.90;;;;;;5049648;28;20045;-64
2023/01/11 13:33:16;;;;;;;21.13;4.25;;;9.70;99.90;;;;;;5067633;28;20071;-64
2023/01/11 13:35:48;;;;;;;19.50;4.35;;;9.60;99.90;;;;;;5049829;28;20497;-64
2023/01/11 13:38:30;;;;;;;19.73;4.45;;;9.60;99.90;;;;;;5050790;28;20455;-64
2023/01/11 13:41:05;;;;;;;21.25;4.93;;;9.50;99.90;;;;;;5051855;28;20171;-64
2023/01/11 13:43:54;;;;;;;21.10;4.55;;;9.50;99.90;;;;;;5050036;28;20118;-65
2023/01/11 13:46:43;;;;;;;18.83;4.90;;;9.40;99.90;;;;;;5033322;28;20052;-64
2023/01/11 13:49:37;;;;;;;26.80;4.82;;;9.40;99.90;;;;;;5039016;28;20045;-64
2023/01/11 13:52:11;;;;;;;13.55;3.55;;;9.40;99.90;;;;;;5050194;28;20036;-65
2023/01/11 13:55:07;;;;;;;19.57;4.47;;;9.40;99.90;;;;;;5048664;28;20044;-65
2023/01/11 13:58:00;;;;;;;24.80;4.57;;;9.40;99.90;;;;;;5050175;28;20299;-65
2023/01/11 14:00:42;;;;;;;16.73;4.65;;;9.40;99.90;;;;;;5057090;28;20501;-65
2023/01/11 14:03:28;;;;;;;18.58;4.65;;;9.30;99.90;;;;;;5051600;28;20130;-65
2023/01/11 14:06:22;;;;;;;21.10;5.28;;;9.20;99.90;;;;;;5050744;28;20033;-65
2023/01/11 14:09:27;;;;;;;16.77;4.03;;;9.10;99.90;;;;;;5052139;28;20049;-65
2023/01/11 14:12:20;;;;;;;24.33;5.32;;;9.10;99.90;;;;;;5036018;28;20045;-65